sensor_id;sensor_type;location;lat;lon;timestamp;P1;durP1;ratioP1;P2;durP2;ratioP2
80698;SDS011;70062;51.658;5.658;2023-12-20T00:00:05;5.40;;;3.50;;
80698;SDS011;70062;51.658;5.658;2023-12-20T00:02:32;5.50;;;3.10;;
80698;SDS011;70062;51.658;5.658;2023-12-20T00:04:57;5.80;;;3.50;;
80698;SDS011;70062;51.658;5.658;2023-12-20T00:07:23;5.90;;;3.40;;
80698;SDS011;70062;51.658;5.658;2023-12-20T00:09:48;6.70;;;3.40;;
80698;SDS011;70062;51.658;5.658;2023-12-20T00:12:14;5.90;;;3.50;;
80698;SDS011;70062;51.658;5.658;2023-12-20T00:14:39;4.50;;;3.40;;
80698;SDS011;70062;51.658;5.658;2023-12-20T00:17:04;6.00;;;3.40;;
80698;SDS011;70062;51.658;5.658;2023-12-20T00:19:30;3.90;;;2.90;;
80698;SDS011;70062;51.658;5.658;2023-12-20T00:21:56;5.40;;;3.50;;
80698;SDS011;70062;51.658;5.658;2023-12-20T00:24:21;3.90;;;3.00;;
80698;SDS011;70062;51.658;5.658;2023-12-20T00:26:47;5.00;;;3.20;;
80698;SDS011;70062;51.658;5.658;2023-12-20T00:29:12;5.50;;;3.20;;
80698;SDS011;70062;51.658;5.658;2023-12-20T00:31:37;4.50;;;3.00;;
80698;SDS011;70062;51.658;5.658;2023-12-20T00:34:03;3.90;;;2.90;;
80698;SDS011;70062;51.658;5.658;2023-12-20T00:36:28;5.40;;;3.10;;
80698;SDS011;70062;51.658;5.658;2023-12-20T00:38:54;5.10;;;3.20;;
80698;SDS011;70062;51.658;5.658;2023-12-20T00:41:19;4.90;;;3.10;;
80698;SDS011;70062;51.658;5.658;2023-12-20T00:43:45;5.00;;;3.20;;
80698;SDS011;70062;51.658;5.658;2023-12-20T00:46:10;4.60;;;3.20;;
80698;SDS011;70062;51.658;5.658;2023-12-20T00:48:35;5.90;;;3.30;;
80698;SDS011;70062;51.658;5.658;2023-12-20T00:51:01;6.00;;;3.20;;
80698;SDS011;70062;51.658;5.658;2023-12-20T00:53:26;5.20;;;3.10;;
80698;SDS011;70062;51.658;5.658;2023-12-20T00:55:52;5.50;;;3.20;;
80698;SDS011;70062;51.658;5.658;2023-12-20T00:58:18;6.00;;;3.30;;
80698;SDS011;70062;51.658;5.658;2023-12-20T01:00:43;3.80;;;3.10;;
80698;SDS011;70062;51.658;5.658;2023-12-20T01:03:09;5.90;;;3.70;;
80698;SDS011;70062;51.658;5.658;2023-12-20T01:05:34;5.60;;;3.50;;
80698;SDS011;70062;51.658;5.658;2023-12-20T01:07:59;4.40;;;3.00;;
80698;SDS011;70062;51.658;5.658;2023-12-20T01:10:25;4.20;;;2.90;;
80698;SDS011;70062;51.658;5.658;2023-12-20T01:12:53;5.30;;;3.30;;
80698;SDS011;70062;51.658;5.658;2023-12-20T01:15:18;6.70;;;3.10;;
80698;SDS011;70062;51.658;5.658;2023-12-20T01:17:44;5.00;;;3.10;;
80698;SDS011;70062;51.658;5.658;2023-12-20T01:20:09;5.60;;;3.20;;
80698;SDS011;70062;51.658;5.658;2023-12-20T01:22:35;6.50;;;3.20;;
80698;SDS011;70062;51.658;5.658;2023-12-20T01:25:00;4.80;;;3.30;;
80698;SDS011;70062;51.658;5.658;2023-12-20T01:27:27;5.00;;;2.90;;
80698;SDS011;70062;51.658;5.658;2023-12-20T01:29:53;4.20;;;2.80;;
80698;SDS011;70062;51.658;5.658;2023-12-20T01:32:18;5.00;;;3.10;;
80698;SDS011;70062;51.658;5.658;2023-12-20T01:34:43;6.10;;;2.90;;
80698;SDS011;70062;51.658;5.658;2023-12-20T01:37:09;5.60;;;3.00;;
80698;SDS011;70062;51.658;5.658;2023-12-20T01:39:34;6.00;;;3.10;;
80698;SDS011;70062;51.658;5.658;2023-12-20T01:42:00;4.00;;;2.60;;
80698;SDS011;70062;51.658;5.658;2023-12-20T01:44:27;4.00;;;2.80;;
80698;SDS011;70062;51.658;5.658;2023-12-20T01:46:52;4.30;;;2.70;;
80698;SDS011;70062;51.658;5.658;2023-12-20T01:49:18;5.80;;;3.00;;
80698;SDS011;70062;51.658;5.658;2023-12-20T01:51:44;4.30;;;2.80;;
80698;SDS011;70062;51.658;5.658;2023-12-20T01:54:15;6.00;;;3.00;;
80698;SDS011;70062;51.658;5.658;2023-12-20T01:59:06;5.20;;;3.00;;
80698;SDS011;70062;51.658;5.658;2023-12-20T02:01:34;3.60;;;2.50;;
80698;SDS011;70062;51.658;5.658;2023-12-20T02:04:00;4.50;;;2.70;;
80698;SDS011;70062;51.658;5.658;2023-12-20T02:06:25;4.20;;;2.70;;
80698;SDS011;70062;51.658;5.658;2023-12-20T02:08:56;6.00;;;2.70;;
80698;SDS011;70062;51.658;5.658;2023-12-20T02:11:23;5.20;;;3.00;;
80698;SDS011;70062;51.658;5.658;2023-12-20T02:13:50;3.90;;;2.70;;
80698;SDS011;70062;51.658;5.658;2023-12-20T02:16:15;4.60;;;2.80;;
80698;SDS011;70062;51.658;5.658;2023-12-20T02:18:42;3.70;;;2.70;;
80698;SDS011;70062;51.658;5.658;2023-12-20T02:21:09;4.10;;;2.80;;
80698;SDS011;70062;51.658;5.658;2023-12-20T02:23:35;5.70;;;3.00;;
80698;SDS011;70062;51.658;5.658;2023-12-20T02:26:01;4.40;;;2.70;;
80698;SDS011;70062;51.658;5.658;2023-12-20T02:28:28;5.40;;;3.00;;
80698;SDS011;70062;51.658;5.658;2023-12-20T02:30:54;5.30;;;2.70;;
80698;SDS011;70062;51.658;5.658;2023-12-20T02:33:19;5.40;;;2.90;;
80698;SDS011;70062;51.658;5.658;2023-12-20T02:35:45;3.80;;;2.50;;
80698;SDS011;70062;51.658;5.658;2023-12-20T02:38:10;3.90;;;2.70;;
80698;SDS011;70062;51.658;5.658;2023-12-20T02:40:36;4.70;;;2.60;;
80698;SDS011;70062;51.658;5.658;2023-12-20T02:43:04;4.60;;;2.70;;
80698;SDS011;70062;51.658;5.658;2023-12-20T02:45:30;4.30;;;2.60;;
80698;SDS011;70062;51.658;5.658;2023-12-20T02:47:55;3.80;;;2.70;;
80698;SDS011;70062;51.658;5.658;2023-12-20T02:50:21;3.90;;;2.70;;
80698;SDS011;70062;51.658;5.658;2023-12-20T02:52:46;5.90;;;2.80;;
80698;SDS011;70062;51.658;5.658;2023-12-20T02:55:12;4.40;;;2.50;;
80698;SDS011;70062;51.658;5.658;2023-12-20T02:57:37;4.20;;;2.80;;
80698;SDS011;70062;51.658;5.658;2023-12-20T03:00:07;5.10;;;2.70;;
80698;SDS011;70062;51.658;5.658;2023-12-20T03:02:34;4.40;;;2.40;;
80698;SDS011;70062;51.658;5.658;2023-12-20T03:05:00;3.40;;;2.40;;
80698;SDS011;70062;51.658;5.658;2023-12-20T03:07:31;3.80;;;2.50;;
80698;SDS011;70062;51.658;5.658;2023-12-20T03:09:56;4.10;;;2.50;;
80698;SDS011;70062;51.658;5.658;2023-12-20T03:12:22;5.60;;;2.60;;
80698;SDS011;70062;51.658;5.658;2023-12-20T03:14:48;5.30;;;2.50;;
80698;SDS011;70062;51.658;5.658;2023-12-20T03:17:14;4.40;;;2.80;;
80698;SDS011;70062;51.658;5.658;2023-12-20T03:19:39;4.40;;;2.40;;
80698;SDS011;70062;51.658;5.658;2023-12-20T03:22:04;3.70;;;2.60;;
80698;SDS011;70062;51.658;5.658;2023-12-20T03:24:30;3.80;;;2.60;;
80698;SDS011;70062;51.658;5.658;2023-12-20T03:26:55;5.20;;;2.30;;
80698;SDS011;70062;51.658;5.658;2023-12-20T03:29:20;5.90;;;2.60;;
80698;SDS011;70062;51.658;5.658;2023-12-20T03:31:46;6.00;;;2.80;;
80698;SDS011;70062;51.658;5.658;2023-12-20T03:34:11;3.70;;;2.60;;
80698;SDS011;70062;51.658;5.658;2023-12-20T03:36:36;3.80;;;2.40;;
80698;SDS011;70062;51.658;5.658;2023-12-20T03:39:02;5.30;;;2.80;;
80698;SDS011;70062;51.658;5.658;2023-12-20T03:41:27;4.50;;;2.50;;
80698;SDS011;70062;51.658;5.658;2023-12-20T03:43:53;4.10;;;2.70;;
80698;SDS011;70062;51.658;5.658;2023-12-20T03:46:18;5.90;;;2.50;;
80698;SDS011;70062;51.658;5.658;2023-12-20T03:48:44;4.10;;;2.30;;
80698;SDS011;70062;51.658;5.658;2023-12-20T03:51:09;3.90;;;2.50;;
80698;SDS011;70062;51.658;5.658;2023-12-20T03:53:34;3.90;;;2.60;;
80698;SDS011;70062;51.658;5.658;2023-12-20T03:55:59;5.80;;;2.60;;
80698;SDS011;70062;51.658;5.658;2023-12-20T04:06:55;5.30;;;2.60;;
80698;SDS011;70062;51.658;5.658;2023-12-20T04:09:20;4.10;;;2.60;;
80698;SDS011;70062;51.658;5.658;2023-12-20T04:11:45;4.10;;;2.30;;
80698;SDS011;70062;51.658;5.658;2023-12-20T04:14:11;4.50;;;2.50;;
80698;SDS011;70062;51.658;5.658;2023-12-20T04:16:36;4.70;;;2.30;;
80698;SDS011;70062;51.658;5.658;2023-12-20T04:30:56;3.70;;;2.40;;
80698;SDS011;70062;51.658;5.658;2023-12-20T04:33:21;4.10;;;2.40;;
80698;SDS011;70062;51.658;5.658;2023-12-20T04:35:47;4.30;;;2.60;;
80698;SDS011;70062;51.658;5.658;2023-12-20T04:38:13;4.10;;;2.20;;
80698;SDS011;70062;51.658;5.658;2023-12-20T04:40:38;4.90;;;2.30;;
80698;SDS011;70062;51.658;5.658;2023-12-20T04:43:05;3.80;;;2.40;;
80698;SDS011;70062;51.658;5.658;2023-12-20T04:45:31;3.50;;;2.30;;
80698;SDS011;70062;51.658;5.658;2023-12-20T04:47:56;3.10;;;2.30;;
80698;SDS011;70062;51.658;5.658;2023-12-20T04:50:22;3.50;;;2.10;;
80698;SDS011;70062;51.658;5.658;2023-12-20T04:52:47;4.00;;;2.10;;
80698;SDS011;70062;51.658;5.658;2023-12-20T04:55:12;4.90;;;2.50;;
80698;SDS011;70062;51.658;5.658;2023-12-20T04:57:38;3.40;;;2.20;;
80698;SDS011;70062;51.658;5.658;2023-12-20T05:00:04;5.10;;;2.40;;
80698;SDS011;70062;51.658;5.658;2023-12-20T05:02:30;5.00;;;2.20;;
80698;SDS011;70062;51.658;5.658;2023-12-20T05:04:56;4.70;;;2.20;;
80698;SDS011;70062;51.658;5.658;2023-12-20T05:07:21;5.10;;;2.50;;
80698;SDS011;70062;51.658;5.658;2023-12-20T05:09:46;4.30;;;2.20;;
80698;SDS011;70062;51.658;5.658;2023-12-20T05:12:12;4.20;;;2.20;;
80698;SDS011;70062;51.658;5.658;2023-12-20T05:14:37;3.80;;;2.10;;
80698;SDS011;70062;51.658;5.658;2023-12-20T05:17:03;4.10;;;2.10;;
80698;SDS011;70062;51.658;5.658;2023-12-20T05:19:28;3.80;;;2.10;;
80698;SDS011;70062;51.658;5.658;2023-12-20T05:21:54;3.20;;;2.20;;
80698;SDS011;70062;51.658;5.658;2023-12-20T05:24:19;4.50;;;2.30;;
80698;SDS011;70062;51.658;5.658;2023-12-20T05:26:44;3.70;;;2.10;;
80698;SDS011;70062;51.658;5.658;2023-12-20T05:29:10;4.20;;;2.40;;
80698;SDS011;70062;51.658;5.658;2023-12-20T05:31:35;3.80;;;2.20;;
80698;SDS011;70062;51.658;5.658;2023-12-20T05:34:00;3.70;;;2.20;;
80698;SDS011;70062;51.658;5.658;2023-12-20T05:36:26;4.50;;;2.20;;
80698;SDS011;70062;51.658;5.658;2023-12-20T05:38:51;4.30;;;2.20;;
80698;SDS011;70062;51.658;5.658;2023-12-20T05:41:16;4.60;;;2.30;;
80698;SDS011;70062;51.658;5.658;2023-12-20T05:43:42;4.40;;;2.10;;
80698;SDS011;70062;51.658;5.658;2023-12-20T05:46:07;4.60;;;2.20;;
80698;SDS011;70062;51.658;5.658;2023-12-20T05:51:01;6.30;;;2.30;;
80698;SDS011;70062;51.658;5.658;2023-12-20T05:53:26;4.10;;;2.00;;
80698;SDS011;70062;51.658;5.658;2023-12-20T05:55:52;5.30;;;1.90;;
80698;SDS011;70062;51.658;5.658;2023-12-20T05:58:17;4.80;;;2.20;;
80698;SDS011;70062;51.658;5.658;2023-12-20T06:00:43;3.20;;;2.00;;
80698;SDS011;70062;51.658;5.658;2023-12-20T06:03:08;4.20;;;2.50;;
80698;SDS011;70062;51.658;5.658;2023-12-20T06:05:33;4.10;;;2.10;;
80698;SDS011;70062;51.658;5.658;2023-12-20T06:07:59;4.20;;;2.20;;
80698;SDS011;70062;51.658;5.658;2023-12-20T06:10:27;3.80;;;2.10;;
80698;SDS011;70062;51.658;5.658;2023-12-20T06:12:53;3.10;;;2.00;;
80698;SDS011;70062;51.658;5.658;2023-12-20T06:15:18;5.20;;;2.50;;
80698;SDS011;70062;51.658;5.658;2023-12-20T06:17:44;4.50;;;2.30;;
80698;SDS011;70062;51.658;5.658;2023-12-20T06:20:11;4.80;;;2.20;;
80698;SDS011;70062;51.658;5.658;2023-12-20T06:22:37;4.00;;;2.00;;
80698;SDS011;70062;51.658;5.658;2023-12-20T06:25:06;4.70;;;2.40;;
80698;SDS011;70062;51.658;5.658;2023-12-20T06:27:32;4.20;;;1.90;;
80698;SDS011;70062;51.658;5.658;2023-12-20T06:29:57;3.20;;;2.00;;
80698;SDS011;70062;51.658;5.658;2023-12-20T06:32:23;3.60;;;2.10;;
80698;SDS011;70062;51.658;5.658;2023-12-20T06:34:49;5.50;;;2.10;;
80698;SDS011;70062;51.658;5.658;2023-12-20T06:37:14;3.70;;;2.10;;
80698;SDS011;70062;51.658;5.658;2023-12-20T06:39:40;4.60;;;2.30;;
80698;SDS011;70062;51.658;5.658;2023-12-20T06:42:05;4.60;;;2.10;;
80698;SDS011;70062;51.658;5.658;2023-12-20T06:44:31;5.10;;;2.40;;
80698;SDS011;70062;51.658;5.658;2023-12-20T06:46:57;4.90;;;2.30;;
80698;SDS011;70062;51.658;5.658;2023-12-20T06:49:22;5.00;;;2.10;;
80698;SDS011;70062;51.658;5.658;2023-12-20T06:51:48;4.20;;;2.50;;
80698;SDS011;70062;51.658;5.658;2023-12-20T06:54:13;4.10;;;2.00;;
80698;SDS011;70062;51.658;5.658;2023-12-20T06:56:38;4.00;;;2.30;;
80698;SDS011;70062;51.658;5.658;2023-12-20T06:59:04;4.90;;;2.30;;
80698;SDS011;70062;51.658;5.658;2023-12-20T07:01:29;3.00;;;2.00;;
80698;SDS011;70062;51.658;5.658;2023-12-20T07:03:55;3.40;;;2.00;;
80698;SDS011;70062;51.658;5.658;2023-12-20T07:06:22;4.00;;;2.20;;
80698;SDS011;70062;51.658;5.658;2023-12-20T07:08:49;4.10;;;2.00;;
80698;SDS011;70062;51.658;5.658;2023-12-20T07:11:14;4.30;;;2.30;;
80698;SDS011;70062;51.658;5.658;2023-12-20T07:13:40;4.60;;;2.30;;
80698;SDS011;70062;51.658;5.658;2023-12-20T07:16:05;2.90;;;2.00;;
80698;SDS011;70062;51.658;5.658;2023-12-20T07:18:32;4.50;;;2.00;;
80698;SDS011;70062;51.658;5.658;2023-12-20T07:20:58;4.50;;;2.30;;
80698;SDS011;70062;51.658;5.658;2023-12-20T07:23:23;5.60;;;2.30;;
80698;SDS011;70062;51.658;5.658;2023-12-20T07:25:50;5.70;;;2.00;;
80698;SDS011;70062;51.658;5.658;2023-12-20T07:31:01;6.00;;;2.20;;
80698;SDS011;70062;51.658;5.658;2023-12-20T07:33:27;5.40;;;2.30;;
80698;SDS011;70062;51.658;5.658;2023-12-20T07:35:52;5.30;;;2.10;;
80698;SDS011;70062;51.658;5.658;2023-12-20T07:38:17;3.60;;;2.00;;
80698;SDS011;70062;51.658;5.658;2023-12-20T07:40:43;3.50;;;1.90;;
80698;SDS011;70062;51.658;5.658;2023-12-20T07:43:08;4.20;;;2.00;;
80698;SDS011;70062;51.658;5.658;2023-12-20T07:45:34;4.60;;;2.20;;
80698;SDS011;70062;51.658;5.658;2023-12-20T07:47:59;6.80;;;1.90;;
80698;SDS011;70062;51.658;5.658;2023-12-20T07:50:25;3.90;;;2.10;;
80698;SDS011;70062;51.658;5.658;2023-12-20T07:52:52;3.90;;;2.00;;
80698;SDS011;70062;51.658;5.658;2023-12-20T07:55:19;3.50;;;1.80;;
80698;SDS011;70062;51.658;5.658;2023-12-20T07:57:44;6.20;;;2.00;;
80698;SDS011;70062;51.658;5.658;2023-12-20T08:00:09;5.10;;;2.10;;
80698;SDS011;70062;51.658;5.658;2023-12-20T08:02:35;2.80;;;1.80;;
80698;SDS011;70062;51.658;5.658;2023-12-20T08:05:00;3.90;;;2.10;;
80698;SDS011;70062;51.658;5.658;2023-12-20T08:07:26;3.40;;;1.90;;
80698;SDS011;70062;51.658;5.658;2023-12-20T08:09:52;3.90;;;1.90;;
80698;SDS011;70062;51.658;5.658;2023-12-20T08:12:18;3.20;;;2.20;;
80698;SDS011;70062;51.658;5.658;2023-12-20T08:14:43;4.40;;;2.10;;
80698;SDS011;70062;51.658;5.658;2023-12-20T08:17:08;3.60;;;2.10;;
80698;SDS011;70062;51.658;5.658;2023-12-20T08:19:34;3.80;;;1.90;;
80698;SDS011;70062;51.658;5.658;2023-12-20T08:21:59;4.40;;;2.00;;
80698;SDS011;70062;51.658;5.658;2023-12-20T08:24:24;4.10;;;2.20;;
80698;SDS011;70062;51.658;5.658;2023-12-20T08:26:49;4.10;;;1.90;;
80698;SDS011;70062;51.658;5.658;2023-12-20T08:29:15;3.50;;;1.90;;
80698;SDS011;70062;51.658;5.658;2023-12-20T08:31:40;3.20;;;1.90;;
80698;SDS011;70062;51.658;5.658;2023-12-20T08:34:05;5.00;;;1.90;;
80698;SDS011;70062;51.658;5.658;2023-12-20T08:36:31;4.70;;;1.80;;
80698;SDS011;70062;51.658;5.658;2023-12-20T08:38:57;5.50;;;2.10;;
80698;SDS011;70062;51.658;5.658;2023-12-20T08:41:22;3.60;;;2.00;;
80698;SDS011;70062;51.658;5.658;2023-12-20T08:43:47;3.90;;;1.80;;
80698;SDS011;70062;51.658;5.658;2023-12-20T08:46:14;4.90;;;2.00;;
80698;SDS011;70062;51.658;5.658;2023-12-20T08:48:40;3.80;;;1.80;;
80698;SDS011;70062;51.658;5.658;2023-12-20T08:51:06;4.40;;;2.10;;
80698;SDS011;70062;51.658;5.658;2023-12-20T08:53:33;5.00;;;2.20;;
80698;SDS011;70062;51.658;5.658;2023-12-20T08:55:59;4.40;;;2.10;;
80698;SDS011;70062;51.658;5.658;2023-12-20T08:58:26;7.30;;;1.90;;
80698;SDS011;70062;51.658;5.658;2023-12-20T09:00:52;5.10;;;2.30;;
80698;SDS011;70062;51.658;5.658;2023-12-20T09:03:18;3.40;;;1.90;;
80698;SDS011;70062;51.658;5.658;2023-12-20T09:05:44;4.50;;;2.30;;
80698;SDS011;70062;51.658;5.658;2023-12-20T09:08:10;4.20;;;2.10;;
80698;SDS011;70062;51.658;5.658;2023-12-20T09:10:35;3.80;;;1.80;;
80698;SDS011;70062;51.658;5.658;2023-12-20T09:13:02;3.60;;;1.90;;
80698;SDS011;70062;51.658;5.658;2023-12-20T09:15:27;4.90;;;1.90;;
80698;SDS011;70062;51.658;5.658;2023-12-20T09:17:54;4.90;;;2.20;;
80698;SDS011;70062;51.658;5.658;2023-12-20T09:20:19;3.90;;;1.90;;
80698;SDS011;70062;51.658;5.658;2023-12-20T09:22:45;4.20;;;2.20;;
80698;SDS011;70062;51.658;5.658;2023-12-20T09:25:10;5.30;;;2.30;;
80698;SDS011;70062;51.658;5.658;2023-12-20T09:27:38;4.60;;;2.10;;
80698;SDS011;70062;51.658;5.658;2023-12-20T09:30:03;4.30;;;1.90;;
80698;SDS011;70062;51.658;5.658;2023-12-20T09:32:30;6.10;;;2.00;;
80698;SDS011;70062;51.658;5.658;2023-12-20T09:34:56;5.40;;;1.80;;
80698;SDS011;70062;51.658;5.658;2023-12-20T09:37:21;4.50;;;2.00;;
80698;SDS011;70062;51.658;5.658;2023-12-20T09:39:46;5.50;;;2.10;;
80698;SDS011;70062;51.658;5.658;2023-12-20T09:42:12;4.60;;;2.00;;
80698;SDS011;70062;51.658;5.658;2023-12-20T09:44:42;3.90;;;1.80;;
80698;SDS011;70062;51.658;5.658;2023-12-20T09:47:09;5.30;;;1.90;;
80698;SDS011;70062;51.658;5.658;2023-12-20T09:49:35;4.20;;;2.00;;
80698;SDS011;70062;51.658;5.658;2023-12-20T09:52:01;3.70;;;1.90;;
80698;SDS011;70062;51.658;5.658;2023-12-20T09:54:29;4.10;;;2.00;;
80698;SDS011;70062;51.658;5.658;2023-12-20T09:56:55;5.80;;;2.30;;
80698;SDS011;70062;51.658;5.658;2023-12-20T09:59:21;3.60;;;1.70;;
80698;SDS011;70062;51.658;5.658;2023-12-20T10:01:46;6.50;;;2.10;;
80698;SDS011;70062;51.658;5.658;2023-12-20T10:04:13;4.00;;;1.90;;
80698;SDS011;70062;51.658;5.658;2023-12-20T10:06:39;3.60;;;2.00;;
80698;SDS011;70062;51.658;5.658;2023-12-20T10:09:05;4.00;;;1.80;;
80698;SDS011;70062;51.658;5.658;2023-12-20T10:11:31;3.10;;;1.80;;
80698;SDS011;70062;51.658;5.658;2023-12-20T10:13:59;5.50;;;2.20;;
80698;SDS011;70062;51.658;5.658;2023-12-20T10:16:28;5.00;;;1.90;;
80698;SDS011;70062;51.658;5.658;2023-12-20T10:18:54;4.80;;;1.90;;
80698;SDS011;70062;51.658;5.658;2023-12-20T10:21:20;4.40;;;1.80;;
80698;SDS011;70062;51.658;5.658;2023-12-20T10:23:46;6.70;;;2.20;;
80698;SDS011;70062;51.658;5.658;2023-12-20T10:26:18;3.90;;;1.70;;
80698;SDS011;70062;51.658;5.658;2023-12-20T10:28:45;4.40;;;2.10;;
80698;SDS011;70062;51.658;5.658;2023-12-20T10:31:10;4.60;;;1.80;;
80698;SDS011;70062;51.658;5.658;2023-12-20T10:33:36;4.20;;;2.00;;
80698;SDS011;70062;51.658;5.658;2023-12-20T10:36:02;4.90;;;2.00;;
80698;SDS011;70062;51.658;5.658;2023-12-20T10:38:30;3.50;;;2.00;;
80698;SDS011;70062;51.658;5.658;2023-12-20T10:40:56;6.00;;;2.10;;
80698;SDS011;70062;51.658;5.658;2023-12-20T10:43:26;3.50;;;1.90;;
80698;SDS011;70062;51.658;5.658;2023-12-20T10:45:53;4.20;;;2.00;;
80698;SDS011;70062;51.658;5.658;2023-12-20T10:48:19;3.80;;;1.70;;
80698;SDS011;70062;51.658;5.658;2023-12-20T10:50:46;6.00;;;2.10;;
80698;SDS011;70062;51.658;5.658;2023-12-20T10:53:12;3.50;;;1.70;;
80698;SDS011;70062;51.658;5.658;2023-12-20T10:55:38;4.50;;;1.70;;
80698;SDS011;70062;51.658;5.658;2023-12-20T10:58:06;5.00;;;2.00;;
80698;SDS011;70062;51.658;5.658;2023-12-20T11:00:34;4.30;;;1.90;;
80698;SDS011;70062;51.658;5.658;2023-12-20T11:03:04;3.50;;;1.90;;
80698;SDS011;70062;51.658;5.658;2023-12-20T11:05:57;3.80;;;1.90;;
80698;SDS011;70062;51.658;5.658;2023-12-20T11:11:35;3.40;;;1.90;;
80698;SDS011;70062;51.658;5.658;2023-12-20T11:14:06;3.20;;;1.70;;
80698;SDS011;70062;51.658;5.658;2023-12-20T11:16:39;5.90;;;1.90;;
80698;SDS011;70062;51.658;5.658;2023-12-20T11:19:06;4.40;;;2.10;;
80698;SDS011;70062;51.658;5.658;2023-12-20T11:21:32;3.50;;;2.00;;
80698;SDS011;70062;51.658;5.658;2023-12-20T11:24:01;4.80;;;1.80;;
80698;SDS011;70062;51.658;5.658;2023-12-20T11:26:29;3.90;;;1.90;;
80698;SDS011;70062;51.658;5.658;2023-12-20T11:31:55;2.50;;;1.60;;
80698;SDS011;70062;51.658;5.658;2023-12-20T11:34:20;2.80;;;1.50;;
80698;SDS011;70062;51.658;5.658;2023-12-20T11:36:45;4.10;;;2.00;;
80698;SDS011;70062;51.658;5.658;2023-12-20T11:39:11;3.90;;;1.90;;
80698;SDS011;70062;51.658;5.658;2023-12-20T11:41:38;4.60;;;1.90;;
80698;SDS011;70062;51.658;5.658;2023-12-20T11:44:04;3.70;;;1.60;;
80698;SDS011;70062;51.658;5.658;2023-12-20T11:46:29;7.00;;;1.90;;
80698;SDS011;70062;51.658;5.658;2023-12-20T11:48:56;9.40;;;3.30;;
80698;SDS011;70062;51.658;5.658;2023-12-20T11:51:22;6.00;;;3.10;;
80698;SDS011;70062;51.658;5.658;2023-12-20T11:53:50;9.20;;;2.90;;
80698;SDS011;70062;51.658;5.658;2023-12-20T11:56:16;6.10;;;2.70;;
80698;SDS011;70062;51.658;5.658;2023-12-20T11:58:42;7.90;;;3.00;;
80698;SDS011;70062;51.658;5.658;2023-12-20T12:01:08;6.40;;;2.40;;
80698;SDS011;70062;51.658;5.658;2023-12-20T12:03:33;6.40;;;2.60;;
80698;SDS011;70062;51.658;5.658;2023-12-20T12:05:58;9.30;;;2.60;;
80698;SDS011;70062;51.658;5.658;2023-12-20T12:08:25;4.80;;;2.20;;
80698;SDS011;70062;51.658;5.658;2023-12-20T12:10:51;6.20;;;2.30;;
80698;SDS011;70062;51.658;5.658;2023-12-20T12:13:16;4.90;;;2.10;;
80698;SDS011;70062;51.658;5.658;2023-12-20T12:15:42;7.30;;;2.20;;
80698;SDS011;70062;51.658;5.658;2023-12-20T12:18:08;5.20;;;2.40;;
80698;SDS011;70062;51.658;5.658;2023-12-20T12:20:33;4.70;;;2.40;;
80698;SDS011;70062;51.658;5.658;2023-12-20T12:25:28;4.30;;;2.10;;
80698;SDS011;70062;51.658;5.658;2023-12-20T12:27:55;4.70;;;2.00;;
80698;SDS011;70062;51.658;5.658;2023-12-20T12:30:20;5.40;;;2.00;;
80698;SDS011;70062;51.658;5.658;2023-12-20T12:32:46;3.20;;;1.80;;
80698;SDS011;70062;51.658;5.658;2023-12-20T12:35:11;6.50;;;2.00;;
80698;SDS011;70062;51.658;5.658;2023-12-20T12:37:38;5.30;;;2.10;;
80698;SDS011;70062;51.658;5.658;2023-12-20T12:40:10;5.40;;;2.00;;
80698;SDS011;70062;51.658;5.658;2023-12-20T12:42:40;3.10;;;1.80;;
80698;SDS011;70062;51.658;5.658;2023-12-20T12:45:07;5.50;;;2.30;;
80698;SDS011;70062;51.658;5.658;2023-12-20T12:47:33;2.60;;;1.80;;
80698;SDS011;70062;51.658;5.658;2023-12-20T12:49:59;4.70;;;1.90;;
80698;SDS011;70062;51.658;5.658;2023-12-20T12:52:24;4.40;;;1.80;;
80698;SDS011;70062;51.658;5.658;2023-12-20T12:54:51;4.90;;;1.80;;
80698;SDS011;70062;51.658;5.658;2023-12-20T12:57:16;4.10;;;2.00;;
80698;SDS011;70062;51.658;5.658;2023-12-20T12:59:42;5.20;;;1.90;;
80698;SDS011;70062;51.658;5.658;2023-12-20T13:02:10;3.40;;;1.70;;
80698;SDS011;70062;51.658;5.658;2023-12-20T13:04:36;5.80;;;2.10;;
80698;SDS011;70062;51.658;5.658;2023-12-20T13:07:01;5.80;;;1.90;;
80698;SDS011;70062;51.658;5.658;2023-12-20T13:09:31;7.40;;;1.90;;
80698;SDS011;70062;51.658;5.658;2023-12-20T13:11:56;3.70;;;1.70;;
80698;SDS011;70062;51.658;5.658;2023-12-20T13:14:22;8.40;;;2.10;;
80698;SDS011;70062;51.658;5.658;2023-12-20T13:16:47;5.30;;;1.80;;
80698;SDS011;70062;51.658;5.658;2023-12-20T13:19:12;5.40;;;2.10;;
80698;SDS011;70062;51.658;5.658;2023-12-20T13:21:38;5.00;;;2.00;;
80698;SDS011;70062;51.658;5.658;2023-12-20T13:24:05;5.10;;;1.90;;
80698;SDS011;70062;51.658;5.658;2023-12-20T13:26:30;5.00;;;1.90;;
80698;SDS011;70062;51.658;5.658;2023-12-20T13:28:56;3.20;;;1.60;;
80698;SDS011;70062;51.658;5.658;2023-12-20T13:31:21;3.70;;;1.80;;
80698;SDS011;70062;51.658;5.658;2023-12-20T13:33:47;4.50;;;2.00;;
80698;SDS011;70062;51.658;5.658;2023-12-20T13:36:12;7.80;;;1.80;;
80698;SDS011;70062;51.658;5.658;2023-12-20T13:38:38;6.90;;;1.70;;
80698;SDS011;70062;51.658;5.658;2023-12-20T13:41:04;5.40;;;1.90;;
80698;SDS011;70062;51.658;5.658;2023-12-20T13:43:30;5.40;;;1.80;;
80698;SDS011;70062;51.658;5.658;2023-12-20T13:45:57;4.70;;;1.90;;
80698;SDS011;70062;51.658;5.658;2023-12-20T13:48:23;5.10;;;1.70;;
80698;SDS011;70062;51.658;5.658;2023-12-20T13:50:48;5.90;;;2.30;;
80698;SDS011;70062;51.658;5.658;2023-12-20T13:53:14;5.00;;;1.70;;
80698;SDS011;70062;51.658;5.658;2023-12-20T13:55:39;6.40;;;1.70;;
80698;SDS011;70062;51.658;5.658;2023-12-20T13:58:05;4.40;;;1.70;;
80698;SDS011;70062;51.658;5.658;2023-12-20T14:04:25;8.10;;;2.20;;
80698;SDS011;70062;51.658;5.658;2023-12-20T14:11:13;4.70;;;1.90;;
80698;SDS011;70062;51.658;5.658;2023-12-20T14:17:46;4.80;;;1.90;;
80698;SDS011;70062;51.658;5.658;2023-12-20T14:21:13;4.00;;;1.90;;
80698;SDS011;70062;51.658;5.658;2023-12-20T14:24:41;4.30;;;1.80;;
80698;SDS011;70062;51.658;5.658;2023-12-20T16:09:10;3.90;;;1.70;;
80698;SDS011;70062;51.658;5.658;2023-12-20T16:12:15;6.10;;;2.10;;
80698;SDS011;70062;51.658;5.658;2023-12-20T16:18:50;5.80;;;1.80;;
80698;SDS011;70062;51.658;5.658;2023-12-20T16:22:16;5.90;;;2.10;;
80698;SDS011;70062;51.658;5.658;2023-12-20T16:25:09;6.90;;;2.00;;
80698;SDS011;70062;51.658;5.658;2023-12-20T16:27:38;4.80;;;2.00;;
80698;SDS011;70062;51.658;5.658;2023-12-20T16:31:01;8.10;;;2.10;;
80698;SDS011;70062;51.658;5.658;2023-12-20T16:33:31;6.70;;;2.10;;
80698;SDS011;70062;51.658;5.658;2023-12-20T16:36:02;9.20;;;2.50;;
80698;SDS011;70062;51.658;5.658;2023-12-20T16:39:10;5.40;;;2.20;;
80698;SDS011;70062;51.658;5.658;2023-12-20T16:41:38;6.00;;;2.20;;
80698;SDS011;70062;51.658;5.658;2023-12-20T16:45:22;6.00;;;2.30;;
80698;SDS011;70062;51.658;5.658;2023-12-20T16:48:48;9.80;;;2.30;;
80698;SDS011;70062;51.658;5.658;2023-12-20T16:52:14;8.60;;;2.00;;
80698;SDS011;70062;51.658;5.658;2023-12-20T16:55:41;6.70;;;2.20;;
80698;SDS011;70062;51.658;5.658;2023-12-20T16:59:07;6.60;;;2.00;;
80698;SDS011;70062;51.658;5.658;2023-12-20T17:06:43;7.90;;;2.20;;
80698;SDS011;70062;51.658;5.658;2023-12-20T17:10:09;6.30;;;2.20;;
80698;SDS011;70062;51.658;5.658;2023-12-20T17:13:35;6.90;;;2.20;;
80698;SDS011;70062;51.658;5.658;2023-12-20T17:17:00;4.30;;;2.00;;
80698;SDS011;70062;51.658;5.658;2023-12-20T17:26:28;5.10;;;2.10;;
80698;SDS011;70062;51.658;5.658;2023-12-20T17:29:54;6.60;;;2.10;;
80698;SDS011;70062;51.658;5.658;2023-12-20T17:32:20;9.00;;;2.10;;
80698;SDS011;70062;51.658;5.658;2023-12-20T17:35:41;6.90;;;2.40;;
80698;SDS011;70062;51.658;5.658;2023-12-20T17:39:07;7.10;;;2.80;;
80698;SDS011;70062;51.658;5.658;2023-12-20T17:42:33;6.20;;;2.60;;
80698;SDS011;70062;51.658;5.658;2023-12-20T17:45:59;5.80;;;2.30;;